sensor_id;sensor_type;location;lat;lon;timestamp;temperature;humidity
14475;DHT22;7323;50.848;4.334;2022-11-13T00:01:52;12.50;87.50
14475;DHT22;7323;50.848;4.334;2022-11-13T00:04:21;12.50;85.90
14475;DHT22;7323;50.848;4.334;2022-11-13T00:06:53;12.50;86.40
14475;DHT22;7323;50.848;4.334;2022-11-13T00:09:19;12.50;86.30
14475;DHT22;7323;50.848;4.334;2022-11-13T00:11:45;12.50;85.80
14475;DHT22;7323;50.848;4.334;2022-11-13T00:14:10;12.40;86.50
14475;DHT22;7323;50.848;4.334;2022-11-13T00:16:39;12.40;86.50
14475;DHT22;7323;50.848;4.334;2022-11-13T00:19:19;12.40;85.90
14475;DHT22;7323;50.848;4.334;2022-11-13T00:22:11;12.30;86.10
14475;DHT22;7323;50.848;4.334;2022-11-13T00:24:46;12.40;85.70
14475;DHT22;7323;50.848;4.334;2022-11-13T00:27:12;12.40;85.20
14475;DHT22;7323;50.848;4.334;2022-11-13T00:29:40;12.40;82.50
14475;DHT22;7323;50.848;4.334;2022-11-13T00:32:06;12.40;80.50
14475;DHT22;7323;50.848;4.334;2022-11-13T00:34:35;12.50;79.40
14475;DHT22;7323;50.848;4.334;2022-11-13T00:37:24;12.40;77.40
14475;DHT22;7323;50.848;4.334;2022-11-13T00:39:49;12.30;80.00
14475;DHT22;7323;50.848;4.334;2022-11-13T00:42:15;12.30;81.80
14475;DHT22;7323;50.848;4.334;2022-11-13T00:44:41;12.20;83.10
14475;DHT22;7323;50.848;4.334;2022-11-13T00:47:07;12.10;85.80
14475;DHT22;7323;50.848;4.334;2022-11-13T00:49:33;12.20;83.30
14475;DHT22;7323;50.848;4.334;2022-11-13T00:51:58;12.20;82.20
14475;DHT22;7323;50.848;4.334;2022-11-13T00:54:25;12.20;81.50
14475;DHT22;7323;50.848;4.334;2022-11-13T00:56:51;12.10;82.20
14475;DHT22;7323;50.848;4.334;2022-11-13T00:59:25;12.10;83.40
14475;DHT22;7323;50.848;4.334;2022-11-13T01:01:51;12.10;84.00
14475;DHT22;7323;50.848;4.334;2022-11-13T01:04:18;12.10;85.00
14475;DHT22;7323;50.848;4.334;2022-11-13T01:06:43;12.10;84.60
14475;DHT22;7323;50.848;4.334;2022-11-13T01:09:17;12.00;85.40
14475;DHT22;7323;50.848;4.334;2022-11-13T01:11:55;12.20;86.40
14475;DHT22;7323;50.848;4.334;2022-11-13T01:14:24;12.10;86.80
14475;DHT22;7323;50.848;4.334;2022-11-13T01:16:51;12.10;88.40
14475;DHT22;7323;50.848;4.334;2022-11-13T01:19:18;11.90;89.20
14475;DHT22;7323;50.848;4.334;2022-11-13T01:21:44;12.10;90.50
14475;DHT22;7323;50.848;4.334;2022-11-13T01:24:11;12.00;90.40
14475;DHT22;7323;50.848;4.334;2022-11-13T01:26:36;11.90;90.00
14475;DHT22;7323;50.848;4.334;2022-11-13T01:29:02;11.80;91.00
14475;DHT22;7323;50.848;4.334;2022-11-13T01:31:29;11.70;94.10
14475;DHT22;7323;50.848;4.334;2022-11-13T01:33:57;11.50;94.50
14475;DHT22;7323;50.848;4.334;2022-11-13T01:36:25;11.60;94.90
14475;DHT22;7323;50.848;4.334;2022-11-13T01:38:54;11.60;95.20
14475;DHT22;7323;50.848;4.334;2022-11-13T01:41:29;11.50;95.80
14475;DHT22;7323;50.848;4.334;2022-11-13T01:43:56;11.40;97.50
14475;DHT22;7323;50.848;4.334;2022-11-13T01:46:26;11.20;99.00
14475;DHT22;7323;50.848;4.334;2022-11-13T01:49:01;11.10;99.90
14475;DHT22;7323;50.848;4.334;2022-11-13T01:51:43;11.20;99.90
14475;DHT22;7323;50.848;4.334;2022-11-13T01:54:14;11.30;99.90
14475;DHT22;7323;50.848;4.334;2022-11-13T01:56:41;11.30;99.90
14475;DHT22;7323;50.848;4.334;2022-11-13T01:59:33;11.40;99.90
14475;DHT22;7323;50.848;4.334;2022-11-13T02:02:01;11.60;99.30
14475;DHT22;7323;50.848;4.334;2022-11-13T02:04:34;11.70;97.70
14475;DHT22;7323;50.848;4.334;2022-11-13T02:07:09;11.70;96.70
14475;DHT22;7323;50.848;4.334;2022-11-13T02:09:39;11.80;96.20
14475;DHT22;7323;50.848;4.334;2022-11-13T02:12:17;11.80;95.40
14475;DHT22;7323;50.848;4.334;2022-11-13T02:14:55;11.80;95.10
14475;DHT22;7323;50.848;4.334;2022-11-13T02:17:28;11.80;94.40
14475;DHT22;7323;50.848;4.334;2022-11-13T02:19:57;11.80;93.90
14475;DHT22;7323;50.848;4.334;2022-11-13T02:24:57;11.70;93.00
14475;DHT22;7323;50.848;4.334;2022-11-13T02:27:31;11.60;91.00
14475;DHT22;7323;50.848;4.334;2022-11-13T02:29:58;11.60;86.90
14475;DHT22;7323;50.848;4.334;2022-11-13T02:32:24;11.50;83.20
14475;DHT22;7323;50.848;4.334;2022-11-13T02:34:49;11.50;83.90
14475;DHT22;7323;50.848;4.334;2022-11-13T02:37:15;11.30;87.30
14475;DHT22;7323;50.848;4.334;2022-11-13T02:39:41;11.20;87.40
14475;DHT22;7323;50.848;4.334;2022-11-13T02:42:06;11.30;86.00
14475;DHT22;7323;50.848;4.334;2022-11-13T02:44:32;11.30;83.50
14475;DHT22;7323;50.848;4.334;2022-11-13T02:46:58;11.40;82.70
14475;DHT22;7323;50.848;4.334;2022-11-13T02:49:23;11.20;85.00
14475;DHT22;7323;50.848;4.334;2022-11-13T02:51:49;11.00;89.90
14475;DHT22;7323;50.848;4.334;2022-11-13T02:54:15;11.00;91.80
14475;DHT22;7323;50.848;4.334;2022-11-13T02:56:40;11.10;93.10
14475;DHT22;7323;50.848;4.334;2022-11-13T02:59:06;11.00;93.60
14475;DHT22;7323;50.848;4.334;2022-11-13T03:01:33;11.00;92.50
14475;DHT22;7323;50.848;4.334;2022-11-13T03:03:59;11.10;91.80
14475;DHT22;7323;50.848;4.334;2022-11-13T03:06:25;11.10;90.20
14475;DHT22;7323;50.848;4.334;2022-11-13T03:08:50;10.90;90.90
14475;DHT22;7323;50.848;4.334;2022-11-13T03:11:19;10.90;91.60
14475;DHT22;7323;50.848;4.334;2022-11-13T03:13:47;10.60;92.90
14475;DHT22;7323;50.848;4.334;2022-11-13T03:16:15;10.40;93.70
14475;DHT22;7323;50.848;4.334;2022-11-13T03:18:41;10.30;95.90
14475;DHT22;7323;50.848;4.334;2022-11-13T03:21:12;10.20;97.70
14475;DHT22;7323;50.848;4.334;2022-11-13T03:23:41;10.20;98.60
14475;DHT22;7323;50.848;4.334;2022-11-13T03:26:12;10.20;98.70
14475;DHT22;7323;50.848;4.334;2022-11-13T03:28:38;10.10;98.40
14475;DHT22;7323;50.848;4.334;2022-11-13T03:31:04;10.20;99.20
14475;DHT22;7323;50.848;4.334;2022-11-13T03:33:33;10.10;99.70
14475;DHT22;7323;50.848;4.334;2022-11-13T03:35:59;10.20;99.40
14475;DHT22;7323;50.848;4.334;2022-11-13T03:38:26;10.20;98.80
14475;DHT22;7323;50.848;4.334;2022-11-13T03:40:51;10.20;98.40
14475;DHT22;7323;50.848;4.334;2022-11-13T03:43:17;10.40;97.90
14475;DHT22;7323;50.848;4.334;2022-11-13T03:45:44;10.20;96.80
14475;DHT22;7323;50.848;4.334;2022-11-13T03:48:11;10.20;97.20
14475;DHT22;7323;50.848;4.334;2022-11-13T03:50:37;10.00;97.90
14475;DHT22;7323;50.848;4.334;2022-11-13T03:53:03;10.00;98.30
14475;DHT22;7323;50.848;4.334;2022-11-13T03:55:28;10.10;98.90
14475;DHT22;7323;50.848;4.334;2022-11-13T03:57:54;10.30;98.00
14475;DHT22;7323;50.848;4.334;2022-11-13T04:00:20;10.20;97.90
14475;DHT22;7323;50.848;4.334;2022-11-13T04:02:46;10.20;97.50
14475;DHT22;7323;50.848;4.334;2022-11-13T04:05:11;10.10;95.90
14475;DHT22;7323;50.848;4.334;2022-11-13T04:07:37;9.80;96.60
14475;DHT22;7323;50.848;4.334;2022-11-13T04:10:04;9.80;97.30
14475;DHT22;7323;50.848;4.334;2022-11-13T04:12:31;9.90;97.70
14475;DHT22;7323;50.848;4.334;2022-11-13T04:15:00;10.10;97.00
14475;DHT22;7323;50.848;4.334;2022-11-13T04:17:26;10.20;93.10
14475;DHT22;7323;50.848;4.334;2022-11-13T04:19:51;10.20;91.90
14475;DHT22;7323;50.848;4.334;2022-11-13T04:22:17;10.10;91.70
14475;DHT22;7323;50.848;4.334;2022-11-13T04:24:43;10.10;92.60
14475;DHT22;7323;50.848;4.334;2022-11-13T04:27:08;10.20;93.10
14475;DHT22;7323;50.848;4.334;2022-11-13T04:29:34;10.20;89.50
14475;DHT22;7323;50.848;4.334;2022-11-13T04:31:59;10.20;87.50
14475;DHT22;7323;50.848;4.334;2022-11-13T04:34:25;10.20;88.70
14475;DHT22;7323;50.848;4.334;2022-11-13T04:36:51;10.00;90.30
14475;DHT22;7323;50.848;4.334;2022-11-13T04:39:17;10.00;91.40
14475;DHT22;7323;50.848;4.334;2022-11-13T04:41:47;10.10;90.60
14475;DHT22;7323;50.848;4.334;2022-11-13T04:44:31;10.10;90.50
14475;DHT22;7323;50.848;4.334;2022-11-13T04:46:57;10.10;91.40
14475;DHT22;7323;50.848;4.334;2022-11-13T04:49:22;10.10;91.30
14475;DHT22;7323;50.848;4.334;2022-11-13T04:51:48;10.20;91.20
14475;DHT22;7323;50.848;4.334;2022-11-13T04:54:15;10.20;91.10
14475;DHT22;7323;50.848;4.334;2022-11-13T04:56:41;10.30;90.90
14475;DHT22;7323;50.848;4.334;2022-11-13T04:59:06;10.20;90.60
14475;DHT22;7323;50.848;4.334;2022-11-13T05:01:34;10.30;90.30
14475;DHT22;7323;50.848;4.334;2022-11-13T05:04:01;10.30;90.20
14475;DHT22;7323;50.848;4.334;2022-11-13T05:06:27;10.40;88.40
14475;DHT22;7323;50.848;4.334;2022-11-13T05:08:53;10.40;84.70
14475;DHT22;7323;50.848;4.334;2022-11-13T05:11:19;10.50;82.70
14475;DHT22;7323;50.848;4.334;2022-11-13T05:13:44;10.50;79.20
14475;DHT22;7323;50.848;4.334;2022-11-13T05:16:13;10.50;75.00
14475;DHT22;7323;50.848;4.334;2022-11-13T05:18:39;10.50;75.30
14475;DHT22;7323;50.848;4.334;2022-11-13T05:21:06;10.50;77.60
14475;DHT22;7323;50.848;4.334;2022-11-13T05:23:32;10.40;79.30
14475;DHT22;7323;50.848;4.334;2022-11-13T05:26:09;10.30;82.30
14475;DHT22;7323;50.848;4.334;2022-11-13T05:28:37;10.40;80.80
14475;DHT22;7323;50.848;4.334;2022-11-13T05:31:08;10.40;81.40
14475;DHT22;7323;50.848;4.334;2022-11-13T05:33:36;10.30;82.60
14475;DHT22;7323;50.848;4.334;2022-11-13T05:36:08;10.20;84.20
14475;DHT22;7323;50.848;4.334;2022-11-13T05:38:34;10.20;85.40
14475;DHT22;7323;50.848;4.334;2022-11-13T05:41:02;10.20;82.80
14475;DHT22;7323;50.848;4.334;2022-11-13T05:43:28;10.30;80.50
14475;DHT22;7323;50.848;4.334;2022-11-13T05:46:12;10.30;80.50
14475;DHT22;7323;50.848;4.334;2022-11-13T05:48:47;10.30;81.40
14475;DHT22;7323;50.848;4.334;2022-11-13T05:51:17;10.20;82.80
14475;DHT22;7323;50.848;4.334;2022-11-13T05:53:44;10.10;85.30
14475;DHT22;7323;50.848;4.334;2022-11-13T05:56:17;10.10;86.80
14475;DHT22;7323;50.848;4.334;2022-11-13T05:58:43;10.20;87.30
14475;DHT22;7323;50.848;4.334;2022-11-13T06:01:12;10.20;87.50
14475;DHT22;7323;50.848;4.334;2022-11-13T06:03:39;10.20;87.10
14475;DHT22;7323;50.848;4.334;2022-11-13T06:06:06;10.20;87.10
14475;DHT22;7323;50.848;4.334;2022-11-13T06:08:35;10.20;86.30
14475;DHT22;7323;50.848;4.334;2022-11-13T06:11:08;10.30;84.90
14475;DHT22;7323;50.848;4.334;2022-11-13T06:13:34;10.40;82.90
14475;DHT22;7323;50.848;4.334;2022-11-13T06:16:05;10.40;78.60
14475;DHT22;7323;50.848;4.334;2022-11-13T06:18:33;10.40;76.00
14475;DHT22;7323;50.848;4.334;2022-11-13T06:21:20;10.30;77.50
14475;DHT22;7323;50.848;4.334;2022-11-13T06:23:46;10.30;79.00
14475;DHT22;7323;50.848;4.334;2022-11-13T06:26:15;10.20;81.70
14475;DHT22;7323;50.848;4.334;2022-11-13T06:28:43;10.10;83.10
14475;DHT22;7323;50.848;4.334;2022-11-13T06:31:11;10.20;85.40
14475;DHT22;7323;50.848;4.334;2022-11-13T06:33:38;10.10;86.10
14475;DHT22;7323;50.848;4.334;2022-11-13T06:36:07;10.00;89.10
14475;DHT22;7323;50.848;4.334;2022-11-13T06:38:34;9.90;90.70
14475;DHT22;7323;50.848;4.334;2022-11-13T06:41:09;10.10;91.50
14475;DHT22;7323;50.848;4.334;2022-11-13T06:43:35;9.70;92.10
14475;DHT22;7323;50.848;4.334;2022-11-13T06:46:09;9.70;94.30
14475;DHT22;7323;50.848;4.334;2022-11-13T06:48:35;9.50;97.10
14475;DHT22;7323;50.848;4.334;2022-11-13T06:51:01;9.50;98.80
14475;DHT22;7323;50.848;4.334;2022-11-13T06:53:29;9.60;99.30
14475;DHT22;7323;50.848;4.334;2022-11-13T06:55:55;9.50;99.30
14475;DHT22;7323;50.848;4.334;2022-11-13T06:58:22;9.40;99.90
14475;DHT22;7323;50.848;4.334;2022-11-13T07:00:47;9.40;99.90
14475;DHT22;7323;50.848;4.334;2022-11-13T07:03:26;9.40;99.90
14475;DHT22;7323;50.848;4.334;2022-11-13T07:05:54;9.20;99.90
14475;DHT22;7323;50.848;4.334;2022-11-13T07:08:19;9.10;99.90
14475;DHT22;7323;50.848;4.334;2022-11-13T07:10:56;9.30;99.90
14475;DHT22;7323;50.848;4.334;2022-11-13T07:13:22;9.00;99.90
14475;DHT22;7323;50.848;4.334;2022-11-13T07:15:50;9.00;99.90
14475;DHT22;7323;50.848;4.334;2022-11-13T07:18:16;9.00;99.90
14475;DHT22;7323;50.848;4.334;2022-11-13T07:20:41;9.10;99.90
14475;DHT22;7323;50.848;4.334;2022-11-13T07:23:08;9.20;99.90
14475;DHT22;7323;50.848;4.334;2022-11-13T07:25:34;9.30;99.90
14475;DHT22;7323;50.848;4.334;2022-11-13T07:28:02;9.30;99.90
14475;DHT22;7323;50.848;4.334;2022-11-13T07:30:29;9.40;99.90
14475;DHT22;7323;50.848;4.334;2022-11-13T07:32:55;9.30;99.90
14475;DHT22;7323;50.848;4.334;2022-11-13T07:35:21;9.30;99.90
14475;DHT22;7323;50.848;4.334;2022-11-13T07:37:46;9.30;99.90
14475;DHT22;7323;50.848;4.334;2022-11-13T07:40:12;9.30;99.90
14475;DHT22;7323;50.848;4.334;2022-11-13T07:42:38;9.30;99.90
14475;DHT22;7323;50.848;4.334;2022-11-13T07:45:05;9.30;99.90
14475;DHT22;7323;50.848;4.334;2022-11-13T07:47:31;9.40;99.90
14475;DHT22;7323;50.848;4.334;2022-11-13T07:49:58;9.50;99.90
14475;DHT22;7323;50.848;4.334;2022-11-13T07:52:23;9.50;99.90
14475;DHT22;7323;50.848;4.334;2022-11-13T07:54:49;9.50;99.90
14475;DHT22;7323;50.848;4.334;2022-11-13T07:57:16;9.50;99.90
14475;DHT22;7323;50.848;4.334;2022-11-13T07:59:42;9.50;99.70
14475;DHT22;7323;50.848;4.334;2022-11-13T08:02:13;9.60;99.70
14475;DHT22;7323;50.848;4.334;2022-11-13T08:04:39;9.50;99.40
14475;DHT22;7323;50.848;4.334;2022-11-13T08:07:05;9.60;98.80
14475;DHT22;7323;50.848;4.334;2022-11-13T08:09:31;9.60;98.80
14475;DHT22;7323;50.848;4.334;2022-11-13T08:11:57;9.40;98.30
14475;DHT22;7323;50.848;4.334;2022-11-13T08:14:22;9.70;97.80
14475;DHT22;7323;50.848;4.334;2022-11-13T08:16:48;9.70;97.40
14475;DHT22;7323;50.848;4.334;2022-11-13T08:19:13;9.80;96.60
14475;DHT22;7323;50.848;4.334;2022-11-13T08:21:40;9.80;96.20
14475;DHT22;7323;50.848;4.334;2022-11-13T08:24:08;9.90;95.30
14475;DHT22;7323;50.848;4.334;2022-11-13T08:26:39;10.00;94.30
14475;DHT22;7323;50.848;4.334;2022-11-13T08:29:04;10.10;93.40
14475;DHT22;7323;50.848;4.334;2022-11-13T08:31:34;10.30;92.60
14475;DHT22;7323;50.848;4.334;2022-11-13T08:34:01;10.30;92.20
14475;DHT22;7323;50.848;4.334;2022-11-13T08:36:27;10.50;91.80
14475;DHT22;7323;50.848;4.334;2022-11-13T08:38:53;10.60;90.40
14475;DHT22;7323;50.848;4.334;2022-11-13T08:41:20;10.70;88.80
14475;DHT22;7323;50.848;4.334;2022-11-13T08:43:45;10.70;86.00
14475;DHT22;7323;50.848;4.334;2022-11-13T08:46:11;10.80;85.00
14475;DHT22;7323;50.848;4.334;2022-11-13T08:48:37;10.90;83.50
14475;DHT22;7323;50.848;4.334;2022-11-13T08:51:03;11.10;81.80
14475;DHT22;7323;50.848;4.334;2022-11-13T08:53:31;11.30;79.60
14475;DHT22;7323;50.848;4.334;2022-11-13T08:56:02;11.60;75.80
14475;DHT22;7323;50.848;4.334;2022-11-13T08:58:37;11.60;70.00
14475;DHT22;7323;50.848;4.334;2022-11-13T09:01:03;11.80;66.60
14475;DHT22;7323;50.848;4.334;2022-11-13T09:03:29;11.90;61.30
14475;DHT22;7323;50.848;4.334;2022-11-13T09:05:56;12.00;57.60
14475;DHT22;7323;50.848;4.334;2022-11-13T09:08:21;12.10;53.50
14475;DHT22;7323;50.848;4.334;2022-11-13T09:10:48;12.20;52.20
14475;DHT22;7323;50.848;4.334;2022-11-13T09:13:34;12.30;50.40
14475;DHT22;7323;50.848;4.334;2022-11-13T09:16:03;12.20;46.40
14475;DHT22;7323;50.848;4.334;2022-11-13T09:18:37;12.20;43.50
14475;DHT22;7323;50.848;4.334;2022-11-13T09:21:19;12.20;43.50
14475;DHT22;7323;50.848;4.334;2022-11-13T09:24:05;12.30;42.50
14475;DHT22;7323;50.848;4.334;2022-11-13T09:26:58;12.30;41.50
14475;DHT22;7323;50.848;4.334;2022-11-13T09:29:51;12.50;39.80
14475;DHT22;7323;50.848;4.334;2022-11-13T09:32:19;12.30;37.40
14475;DHT22;7323;50.848;4.334;2022-11-13T09:34:45;12.20;39.40
14475;DHT22;7323;50.848;4.334;2022-11-13T09:37:14;12.30;38.60
14475;DHT22;7323;50.848;4.334;2022-11-13T09:40:06;12.50;35.10
14475;DHT22;7323;50.848;4.334;2022-11-13T09:50:00;12.60;27.90
14475;DHT22;7323;50.848;4.334;2022-11-13T09:52:38;12.80;24.60
14475;DHT22;7323;50.848;4.334;2022-11-13T09:55:27;13.00;25.20
14475;DHT22;7323;50.848;4.334;2022-11-13T09:58:15;13.10;19.20
14475;DHT22;7323;50.848;4.334;2022-11-13T10:01:10;13.00;13.40
14475;DHT22;7323;50.848;4.334;2022-11-13T10:04:18;12.90;18.50
14475;DHT22;7323;50.848;4.334;2022-11-13T10:07:19;13.00;21.10
14475;DHT22;7323;50.848;4.334;2022-11-13T10:10:45;13.10;18.00
14475;DHT22;7323;50.848;4.334;2022-11-13T10:12:50;13.20;15.90
14475;DHT22;7323;50.848;4.334;2022-11-13T10:15:19;13.30;11.40
14475;DHT22;7323;50.848;4.334;2022-11-13T10:18:16;13.30;8.80
14475;DHT22;7323;50.848;4.334;2022-11-13T10:23:49;13.40;6.00
14475;DHT22;7323;50.848;4.334;2022-11-13T10:26:28;13.50;4.70
14475;DHT22;7323;50.848;4.334;2022-11-13T10:29:11;13.50;1.00
14475;DHT22;7323;50.848;4.334;2022-11-13T10:31:46;13.50;1.00
14475;DHT22;7323;50.848;4.334;2022-11-13T10:34:18;13.50;1.00
14475;DHT22;7323;50.848;4.334;2022-11-13T10:37:14;13.50;1.00
14475;DHT22;7323;50.848;4.334;2022-11-13T10:40:09;13.60;1.00
14475;DHT22;7323;50.848;4.334;2022-11-13T10:42:52;13.70;1.00
14475;DHT22;7323;50.848;4.334;2022-11-13T10:45:42;13.80;1.00
14475;DHT22;7323;50.848;4.334;2022-11-13T10:48:44;13.90;1.00
14475;DHT22;7323;50.848;4.334;2022-11-13T10:51:31;14.00;1.00
14475;DHT22;7323;50.848;4.334;2022-11-13T10:54:33;14.00;1.00
14475;DHT22;7323;50.848;4.334;2022-11-13T10:57:32;14.20;1.00
14475;DHT22;7323;50.848;4.334;2022-11-13T11:00:29;14.20;1.00
14475;DHT22;7323;50.848;4.334;2022-11-13T11:02:55;14.20;1.00
14475;DHT22;7323;50.848;4.334;2022-11-13T11:05:29;14.20;1.00
14475;DHT22;7323;50.848;4.334;2022-11-13T11:08:08;14.40;1.00
14475;DHT22;7323;50.848;4.334;2022-11-13T11:10:54;14.30;1.00
14475;DHT22;7323;50.848;4.334;2022-11-13T11:13:44;14.50;1.00
14475;DHT22;7323;50.848;4.334;2022-11-13T11:16:17;14.40;1.00
14475;DHT22;7323;50.848;4.334;2022-11-13T11:19:12;15.00;1.00
14475;DHT22;7323;50.848;4.334;2022-11-13T11:22:12;15.10;1.00
14475;DHT22;7323;50.848;4.334;2022-11-13T11:25:16;15.30;1.00
14475;DHT22;7323;50.848;4.334;2022-11-13T11:28:01;15.30;1.00
14475;DHT22;7323;50.848;4.334;2022-11-13T11:30:41;15.30;1.00
14475;DHT22;7323;50.848;4.334;2022-11-13T11:33:24;15.30;1.00
14475;DHT22;7323;50.848;4.334;2022-11-13T11:36:29;15.30;1.00
14475;DHT22;7323;50.848;4.334;2022-11-13T11:42:45;15.60;1.00
14475;DHT22;7323;50.848;4.334;2022-11-13T11:45:43;15.70;1.00
14475;DHT22;7323;50.848;4.334;2022-11-13T11:48:27;15.90;1.00
14475;DHT22;7323;50.848;4.334;2022-11-13T11:57:04;15.80;1.00
14475;DHT22;7323;50.848;4.334;2022-11-13T12:16:58;16.70;1.00
14475;DHT22;7323;50.848;4.334;2022-11-13T12:25:50;16.30;1.00
14475;DHT22;7323;50.848;4.334;2022-11-13T12:28:28;16.50;1.00
14475;DHT22;7323;50.848;4.334;2022-11-13T12:36:21;16.70;1.00
14475;DHT22;7323;50.848;4.334;2022-11-13T12:38:55;16.90;1.00
14475;DHT22;7323;50.848;4.334;2022-11-13T12:41:30;17.10;1.00
14475;DHT22;7323;50.848;4.334;2022-11-13T12:44:25;17.30;1.00
14475;DHT22;7323;50.848;4.334;2022-11-13T12:46:59;17.50;1.00
14475;DHT22;7323;50.848;4.334;2022-11-13T12:49:34;17.60;1.00
14475;DHT22;7323;50.848;4.334;2022-11-13T12:52:15;17.80;1.00
14475;DHT22;7323;50.848;4.334;2022-11-13T12:54:41;17.90;1.00
14475;DHT22;7323;50.848;4.334;2022-11-13T12:57:17;18.10;1.00
14475;DHT22;7323;50.848;4.334;2022-11-13T12:59:55;18.00;1.00
14475;DHT22;7323;50.848;4.334;2022-11-13T13:08:08;17.70;99.90
14475;DHT22;7323;50.848;4.334;2022-11-13T13:16:27;18.00;99.90
14475;DHT22;7323;50.848;4.334;2022-11-13T13:19:30;18.10;99.90
14475;DHT22;7323;50.848;4.334;2022-11-13T13:21:57;18.10;99.90
14475;DHT22;7323;50.848;4.334;2022-11-13T13:24:35;18.00;99.90
14475;DHT22;7323;50.848;4.334;2022-11-13T13:27:19;18.10;99.90
14475;DHT22;7323;50.848;4.334;2022-11-13T13:29:46;18.10;99.90
14475;DHT22;7323;50.848;4.334;2022-11-13T13:32:30;18.30;99.90
14475;DHT22;7323;50.848;4.334;2022-11-13T13:35:43;18.40;99.90
14475;DHT22;7323;50.848;4.334;2022-11-13T13:38:23;18.50;99.90
14475;DHT22;7323;50.848;4.334;2022-11-13T13:47:30;18.60;1.00
14475;DHT22;7323;50.848;4.334;2022-11-13T13:49:58;18.50;1.00
14475;DHT22;7323;50.848;4.334;2022-11-13T13:52:29;18.50;21.60
14475;DHT22;7323;50.848;4.334;2022-11-13T13:55:05;18.40;36.40
14475;DHT22;7323;50.848;4.334;2022-11-13T13:57:39;18.50;98.40
14475;DHT22;7323;50.848;4.334;2022-11-13T14:00:10;18.40;99.90
14475;DHT22;7323;50.848;4.334;2022-11-13T14:02:48;18.20;99.90
14475;DHT22;7323;50.848;4.334;2022-11-13T14:05:27;18.00;99.90
14475;DHT22;7323;50.848;4.334;2022-11-13T14:07:53;17.90;99.90
14475;DHT22;7323;50.848;4.334;2022-11-13T14:10:22;17.50;99.90
14475;DHT22;7323;50.848;4.334;2022-11-13T14:12:52;17.60;1.00
14475;DHT22;7323;50.848;4.334;2022-11-13T14:15:32;17.90;1.00
14475;DHT22;7323;50.848;4.334;2022-11-13T14:18:12;18.10;99.90
14475;DHT22;7323;50.848;4.334;2022-11-13T14:20:47;18.30;99.90
14475;DHT22;7323;50.848;4.334;2022-11-13T14:23:19;18.50;99.90
14475;DHT22;7323;50.848;4.334;2022-11-13T14:25:47;18.50;99.90
14475;DHT22;7323;50.848;4.334;2022-11-13T14:28:21;18.60;99.90
14475;DHT22;7323;50.848;4.334;2022-11-13T14:31:16;18.40;99.90
14475;DHT22;7323;50.848;4.334;2022-11-13T14:33:46;18.20;99.90
14475;DHT22;7323;50.848;4.334;2022-11-13T14:36:23;18.30;99.90
14475;DHT22;7323;50.848;4.334;2022-11-13T14:38:57;18.10;99.90
14475;DHT22;7323;50.848;4.334;2022-11-13T14:41:40;17.90;99.90
14475;DHT22;7323;50.848;4.334;2022-11-13T14:44:24;17.80;99.90
14475;DHT22;7323;50.848;4.334;2022-11-13T14:47:01;17.80;99.90
14475;DHT22;7323;50.848;4.334;2022-11-13T14:49:31;17.80;99.90
14475;DHT22;7323;50.848;4.334;2022-11-13T14:51:57;18.30;99.90
14475;DHT22;7323;50.848;4.334;2022-11-13T14:54:36;18.80;99.90
14475;DHT22;7323;50.848;4.334;2022-11-13T14:57:10;19.40;99.90
14475;DHT22;7323;50.848;4.334;2022-11-13T14:59:38;19.60;1.00
14475;DHT22;7323;50.848;4.334;2022-11-13T15:02:13;19.70;99.90
14475;DHT22;7323;50.848;4.334;2022-11-13T15:04:42;20.10;1.00
14475;DHT22;7323;50.848;4.334;2022-11-13T15:07:29;20.50;1.00
14475;DHT22;7323;50.848;4.334;2022-11-13T15:09:59;21.00;1.00
14475;DHT22;7323;50.848;4.334;2022-11-13T15:12:25;21.10;1.00
14475;DHT22;7323;50.848;4.334;2022-11-13T15:14:53;21.40;99.90
14475;DHT22;7323;50.848;4.334;2022-11-13T15:17:21;21.40;99.90
14475;DHT22;7323;50.848;4.334;2022-11-13T15:19:50;21.00;99.90
14475;DHT22;7323;50.848;4.334;2022-11-13T15:22:19;21.00;99.90
14475;DHT22;7323;50.848;4.334;2022-11-13T15:24:52;20.80;99.90
14475;DHT22;7323;50.848;4.334;2022-11-13T15:27:18;20.70;1.00
14475;DHT22;7323;50.848;4.334;2022-11-13T15:29:43;20.50;99.90
14475;DHT22;7323;50.848;4.334;2022-11-13T15:32:12;20.60;1.00
14475;DHT22;7323;50.848;4.334;2022-11-13T15:34:42;20.50;1.00
14475;DHT22;7323;50.848;4.334;2022-11-13T15:37:14;20.40;1.00
14475;DHT22;7323;50.848;4.334;2022-11-13T15:39:45;20.20;99.90
14475;DHT22;7323;50.848;4.334;2022-11-13T15:42:16;20.10;99.90
14475;DHT22;7323;50.848;4.334;2022-11-13T15:45:12;19.80;1.00
14475;DHT22;7323;50.848;4.334;2022-11-13T15:47:54;19.40;33.00
14475;DHT22;7323;50.848;4.334;2022-11-13T15:50:34;19.10;99.90
14475;DHT22;7323;50.848;4.334;2022-11-13T15:53:23;18.50;99.90
14475;DHT22;7323;50.848;4.334;2022-11-13T15:55:50;17.70;1.00
14475;DHT22;7323;50.848;4.334;2022-11-13T15:58:43;17.30;1.00
14475;DHT22;7323;50.848;4.334;2022-11-13T16:01:23;17.00;1.00
14475;DHT22;7323;50.848;4.334;2022-11-13T16:04:11;16.70;1.00
14475;DHT22;7323;50.848;4.334;2022-11-13T16:10:09;16.40;1.00
14475;DHT22;7323;50.848;4.334;2022-11-13T16:12:35;16.10;1.00
14475;DHT22;7323;50.848;4.334;2022-11-13T16:15:06;16.00;1.00
14475;DHT22;7323;50.848;4.334;2022-11-13T16:17:39;16.00;1.00
14475;DHT22;7323;50.848;4.334;2022-11-13T16:20:12;15.80;1.00
14475;DHT22;7323;50.848;4.334;2022-11-13T16:22:39;15.70;1.00
14475;DHT22;7323;50.848;4.334;2022-11-13T16:25:07;15.70;1.00
14475;DHT22;7323;50.848;4.334;2022-11-13T16:27:33;15.60;1.00
14475;DHT22;7323;50.848;4.334;2022-11-13T16:29:58;15.50;1.00
14475;DHT22;7323;50.848;4.334;2022-11-13T16:32:24;15.50;1.00
14475;DHT22;7323;50.848;4.334;2022-11-13T16:34:51;15.50;1.00
14475;DHT22;7323;50.848;4.334;2022-11-13T16:37:21;15.40;1.00
14475;DHT22;7323;50.848;4.334;2022-11-13T16:39:53;15.20;1.00
14475;DHT22;7323;50.848;4.334;2022-11-13T16:42:22;15.10;1.00
14475;DHT22;7323;50.848;4.334;2022-11-13T16:44:48;15.20;1.00
14475;DHT22;7323;50.848;4.334;2022-11-13T16:47:26;15.20;1.00
14475;DHT22;7323;50.848;4.334;2022-11-13T16:49:54;15.20;1.00
14475;DHT22;7323;50.848;4.334;2022-11-13T16:52:19;15.20;1.00
14475;DHT22;7323;50.848;4.334;2022-11-13T16:54:45;15.10;1.00
14475;DHT22;7323;50.848;4.334;2022-11-13T16:57:12;15.10;1.00
14475;DHT22;7323;50.848;4.334;2022-11-13T16:59:39;15.00;1.00
14475;DHT22;7323;50.848;4.334;2022-11-13T17:02:16;14.70;1.00
14475;DHT22;7323;50.848;4.334;2022-11-13T17:04:44;14.80;1.00
14475;DHT22;7323;50.848;4.334;2022-11-13T17:07:12;14.70;1.00
14475;DHT22;7323;50.848;4.334;2022-11-13T17:09:41;14.70;1.00
14475;DHT22;7323;50.848;4.334;2022-11-13T17:12:07;14.90;1.00
14475;DHT22;7323;50.848;4.334;2022-11-13T17:14:34;14.70;1.00
14475;DHT22;7323;50.848;4.334;2022-11-13T17:17:15;14.60;1.00
14475;DHT22;7323;50.848;4.334;2022-11-13T17:19:43;14.50;1.00
14475;DHT22;7323;50.848;4.334;2022-11-13T17:22:15;14.40;1.00
14475;DHT22;7323;50.848;4.334;2022-11-13T17:24:42;14.40;1.00
14475;DHT22;7323;50.848;4.334;2022-11-13T17:27:08;14.30;1.00
14475;DHT22;7323;50.848;4.334;2022-11-13T17:29:33;14.30;1.00
14475;DHT22;7323;50.848;4.334;2022-11-13T17:32:13;14.30;1.00
14475;DHT22;7323;50.848;4.334;2022-11-13T17:34:55;14.30;1.00
14475;DHT22;7323;50.848;4.334;2022-11-13T17:37:21;14.20;1.00